createdAt,value
2017-10-28T08:44:53.765Z,11.80
2017-10-28T08:47:36.731Z,11.60
2017-10-28T08:50:05.453Z,11.60
2017-10-28T09:01:01.428Z,11.70
2017-10-28T09:03:44.040Z,11.70
2017-10-28T10:19:46.303Z,12.30
2017-10-28T10:22:14.984Z,12.60
2017-10-28T10:24:49.924Z,12.70
2017-10-28T10:27:23.167Z,12.70
2017-10-28T10:30:02.161Z,12.80
2017-10-28T10:32:45.602Z,13.00
2017-10-28T10:35:17.790Z,12.90
2017-10-28T10:37:56.031Z,12.90
2017-10-28T10:40:33.349Z,12.50
2017-10-28T10:43:03.757Z,12.50
2017-10-28T10:45:34.180Z,12.60
2017-10-28T10:48:11.572Z,12.90
2017-10-28T10:50:46.915Z,13.30
2017-10-28T10:53:15.608Z,13.30
2017-10-28T10:55:44.418Z,13.00
2017-10-28T10:58:19.333Z,12.90
2017-10-28T11:00:54.150Z,12.90
2017-10-28T11:03:28.948Z,13.00
2017-10-28T11:05:57.634Z,12.70
2017-10-28T11:08:26.324Z,12.80
2017-10-28T11:11:00.234Z,12.80
2017-10-28T11:13:35.443Z,12.70
2017-10-28T11:16:17.759Z,12.50
2017-10-28T11:18:54.681Z,12.70
2017-10-28T11:21:24.968Z,12.60
2017-10-28T11:23:59.802Z,12.50
2017-10-28T11:26:28.468Z,12.50
2017-10-28T11:28:57.153Z,12.40
2017-10-28T11:31:25.848Z,12.30
2017-10-28T11:33:54.569Z,12.40
2017-10-28T11:36:29.560Z,12.10
2017-10-28T11:38:58.249Z,12.40
2017-10-28T11:41:32.992Z,12.10
2017-10-28T11:44:07.900Z,12.30
2017-10-28T11:46:37.574Z,12.50
2017-10-28T11:49:08.065Z,12.50
2017-10-28T11:58:31.390Z,12.80
2017-10-28T12:01:02.282Z,12.90
2017-10-28T12:03:36.023Z,12.80
2017-10-28T12:06:10.286Z,13.00
2017-10-28T12:28:08.009Z,13.40
2017-10-28T12:30:40.466Z,13.30
2017-10-28T12:33:42.326Z,13.40
2017-10-28T12:36:17.588Z,13.60
2017-10-28T12:38:54.902Z,13.50
2017-10-28T12:41:48.308Z,13.70
2017-10-28T12:44:22.522Z,13.60
2017-10-28T12:46:52.071Z,13.30
2017-10-28T12:49:20.761Z,13.50
2017-10-28T12:51:49.456Z,13.70
2017-10-28T12:54:24.340Z,13.90
2017-10-28T12:56:53.056Z,13.90
2017-10-28T12:59:23.443Z,12.60
2017-10-28T13:02:26.581Z,13.90
2017-10-28T13:07:49.710Z,14.00
2017-10-28T13:10:25.170Z,14.10
2017-10-28T13:12:54.687Z,13.80
2017-10-28T13:18:26.576Z,13.90
2017-10-28T13:21:07.904Z,13.80
2017-10-28T13:40:46.346Z,13.20
2017-10-28T13:43:15.035Z,13.00
2017-10-28T13:45:47.341Z,13.20
2017-10-28T13:48:16.032Z,13.20
2017-10-28T13:50:44.740Z,13.10
2017-10-28T13:53:20.360Z,13.20
2017-10-28T13:55:55.331Z,12.80
2017-10-28T13:58:24.136Z,12.70
2017-10-28T14:00:53.592Z,12.70
2017-10-28T14:03:30.021Z,12.60
2017-10-28T14:06:00.703Z,12.80
2017-10-28T14:08:29.985Z,12.80
2017-10-28T14:11:02.201Z,12.90
2017-10-28T14:13:49.510Z,12.70
2017-10-28T14:16:31.320Z,12.80
2017-10-28T14:19:00.285Z,12.90
2017-10-28T14:21:29.176Z,13.10
2017-10-28T14:24:01.192Z,13.20
2017-10-28T14:26:30.829Z,12.90
2017-10-28T14:28:59.649Z,12.80
2017-10-28T14:31:39.148Z,12.90
2017-10-28T14:34:13.988Z,13.00
2017-10-28T14:36:42.823Z,12.80
2017-10-28T14:39:14.382Z,12.90
2017-10-28T14:41:43.067Z,12.70
2017-10-28T14:44:18.106Z,12.40
2017-10-28T14:46:53.260Z,12.50
2017-10-28T14:49:22.045Z,12.20
2017-10-28T14:51:56.091Z,12.50
2017-10-28T14:54:28.821Z,12.50
2017-10-28T14:56:58.684Z,12.30
2017-10-28T14:59:32.905Z,12.20
2017-10-28T15:02:03.384Z,12.30
2017-10-28T15:04:35.207Z,12.20
2017-10-28T15:07:03.948Z,12.20
2017-10-28T15:09:46.529Z,12.20
2017-10-28T15:12:30.289Z,11.90
2017-10-28T15:15:02.146Z,12.00
2017-10-28T15:17:32.940Z,11.70
2017-10-28T15:20:12.241Z,11.70
2017-10-28T15:22:47.215Z,11.40
2017-10-28T15:25:15.893Z,11.40
2017-10-28T15:27:50.840Z,11.60
2017-10-28T15:30:29.485Z,11.40
2017-10-28T15:33:10.001Z,11.20
2017-10-28T15:35:40.320Z,11.40
2017-10-28T15:38:13.664Z,9.90
2017-10-28T15:40:43.148Z,11.40
2017-10-28T15:43:17.995Z,11.60
2017-10-28T15:45:47.447Z,11.60
2017-10-28T15:48:23.159Z,11.40
2017-10-28T15:50:55.748Z,11.50
2017-10-28T15:53:24.444Z,11.50
2017-10-28T15:55:59.420Z,11.50
2017-10-28T15:58:28.140Z,11.40
2017-10-28T16:00:57.599Z,11.40
2017-10-28T16:03:32.508Z,11.40
2017-10-28T16:06:17.822Z,11.40
2017-10-28T16:08:46.874Z,11.30
2017-10-28T16:11:15.562Z,11.30
2017-10-28T16:13:44.414Z,11.20
2017-10-28T16:16:13.088Z,11.30
2017-10-28T16:18:41.771Z,11.10
2017-10-28T16:21:17.495Z,11.30
2017-10-28T16:23:53.149Z,11.30
2017-10-28T16:26:28.170Z,11.20
2017-10-28T16:28:57.856Z,11.10
2017-10-28T16:31:26.585Z,10.80
2017-10-28T16:33:57.003Z,11.00
2017-10-28T16:36:25.692Z,10.80
2017-10-28T16:38:54.388Z,10.90
2017-10-28T16:41:23.987Z,10.90
2017-10-28T16:43:52.679Z,11.00
2017-10-28T16:46:27.592Z,10.90
2017-10-28T16:49:02.547Z,10.80
2017-10-28T16:51:31.233Z,10.70
2017-10-28T16:53:59.941Z,10.80
2017-10-28T16:56:34.932Z,10.90
2017-10-28T16:59:03.632Z,10.80
2017-10-28T17:01:33.291Z,10.60
2017-10-28T17:04:08.390Z,10.80
2017-10-28T17:06:37.123Z,10.80
2017-10-28T17:09:05.813Z,10.80
2017-10-28T17:11:37.136Z,10.80
2017-10-28T17:14:06.586Z,10.90
2017-10-28T17:16:42.240Z,10.90
2017-10-28T17:19:20.352Z,10.90
2017-10-28T17:21:49.895Z,10.60
2017-10-28T17:24:19.341Z,10.80
2017-10-28T17:26:54.251Z,10.70
2017-10-28T17:29:31.532Z,10.80
2017-10-28T17:32:06.339Z,10.70
2017-10-28T17:34:35.057Z,10.90
2017-10-28T17:37:03.744Z,11.00
2017-10-28T17:39:32.443Z,11.00
2017-10-28T17:42:01.131Z,11.10
2017-10-28T17:44:36.083Z,10.90
2017-10-28T17:47:10.888Z,11.00
2017-10-28T17:49:45.814Z,11.00
2017-10-28T17:52:14.499Z,11.00
2017-10-28T17:54:50.093Z,10.90
2017-10-28T17:57:18.774Z,11.10
2017-10-28T17:59:47.462Z,11.10
2017-10-28T18:02:18.092Z,11.10
2017-10-28T18:04:46.788Z,11.00
2017-10-28T18:07:15.475Z,11.10
2017-10-28T18:09:44.184Z,11.00
2017-10-28T18:12:13.647Z,11.20
2017-10-28T18:14:42.320Z,11.10
2017-10-28T18:17:17.437Z,11.20
2017-10-28T18:19:46.977Z,11.10
2017-10-28T18:22:15.828Z,11.00
2017-10-28T18:24:50.742Z,11.20
2017-10-28T18:27:20.310Z,11.30
2017-10-28T18:29:49.168Z,11.20
2017-10-28T18:32:17.956Z,11.30
2017-10-28T18:34:47.711Z,11.30
2017-10-28T18:37:22.841Z,11.30
2017-10-28T18:39:51.656Z,11.30
2017-10-28T18:42:21.231Z,11.30
2017-10-28T18:44:56.857Z,11.20
2017-10-28T18:47:33.796Z,11.20
2017-10-28T18:50:02.625Z,11.20
2017-10-28T18:52:31.396Z,11.20
2017-10-28T18:55:01.827Z,11.10
2017-10-28T18:57:36.623Z,11.00
2017-10-28T19:00:06.111Z,10.90
2017-10-28T19:02:34.934Z,10.80
2017-10-28T19:05:03.855Z,10.80
2017-10-28T19:07:33.107Z,10.80
2017-10-28T19:10:02.592Z,10.90
2017-10-28T19:12:37.636Z,11.00
2017-10-28T19:15:12.815Z,10.80
2017-10-28T19:17:41.541Z,10.90
2017-10-28T19:20:10.342Z,10.90
2017-10-28T19:22:39.257Z,10.80
2017-10-28T19:25:08.213Z,10.90
2017-10-28T19:27:43.367Z,10.90
2017-10-28T19:30:12.911Z,10.90
2017-10-28T19:32:41.718Z,10.80
2017-10-28T19:35:16.525Z,10.90
2017-10-28T19:37:45.333Z,10.80
2017-10-28T19:40:20.217Z,10.70
2017-10-28T19:42:55.551Z,10.80
2017-10-28T19:45:30.603Z,10.50
2017-10-28T19:47:59.475Z,10.80
2017-10-28T19:50:28.225Z,10.60
2017-10-28T19:52:57.061Z,10.60
2017-10-28T19:55:32.842Z,10.50
2017-10-28T19:58:01.636Z,10.60
2017-10-28T20:00:31.341Z,10.60
2017-10-28T20:03:11.229Z,10.60
2017-10-28T20:05:40.186Z,10.60
2017-10-28T20:08:34.293Z,10.60
2017-10-28T20:11:03.951Z,10.40
2017-10-28T20:13:38.752Z,10.40
2017-10-28T20:16:16.178Z,10.50
2017-10-28T20:18:51.868Z,10.60
2017-10-28T20:21:23.055Z,10.60
2017-10-28T20:23:52.537Z,10.60
2017-10-28T20:26:27.128Z,10.70
2017-10-28T20:36:46.276Z,10.50
2017-10-28T20:39:22.598Z,10.50
2017-10-28T20:41:57.562Z,10.40
2017-10-28T20:44:32.654Z,10.50
2017-10-28T20:47:08.170Z,10.20
2017-10-28T20:49:37.956Z,10.20
2017-10-28T20:52:06.934Z,10.50
2017-10-28T20:54:42.717Z,10.30
2017-10-28T20:57:18.465Z,10.30
2017-10-28T21:00:17.399Z,10.20
2017-10-28T21:02:59.134Z,10.30
2017-10-28T21:05:34.451Z,10.10
2017-10-28T21:08:10.239Z,10.20
2017-10-28T21:10:39.571Z,10.00
2017-10-28T21:13:08.612Z,10.10
2017-10-28T21:15:39.769Z,10.00
2017-10-28T21:18:09.466Z,10.30
2017-10-28T21:20:45.632Z,10.20
2017-10-28T21:23:14.722Z,10.20
2017-10-28T21:25:44.683Z,10.20
2017-10-28T21:28:26.925Z,10.20
2017-10-28T21:30:57.780Z,10.10
2017-10-28T21:33:29.418Z,10.10
2017-10-28T21:36:06.469Z,10.10
2017-10-28T21:38:35.733Z,10.00
2017-10-28T21:41:13.191Z,10.20
2017-10-28T21:43:48.204Z,10.20
2017-10-28T21:46:23.822Z,10.20
2017-10-28T21:48:52.958Z,10.20
2017-10-28T21:51:28.146Z,10.00
2017-10-28T21:56:52.103Z,9.90
2017-10-28T21:59:22.657Z,9.70
2017-10-28T22:02:00.941Z,9.60
2017-10-28T22:04:35.690Z,8.20
2017-10-28T22:07:05.178Z,9.60
2017-10-28T22:09:35.798Z,9.60
2017-10-28T22:12:07.384Z,9.80
2017-10-28T22:14:38.503Z,9.90
2017-10-28T22:17:08.033Z,9.80
2017-10-28T22:19:38.166Z,9.70
2017-10-28T22:22:12.028Z,9.80
2017-10-28T22:24:41.813Z,9.70
2017-10-28T22:27:13.071Z,9.70
2017-10-28T22:29:42.597Z,9.70
2017-10-28T22:32:11.560Z,9.50
